Time;durP1;ratioP1;P1;durP2;ratioP2;P2;SDS_P1;SDS_P2;PMS_P1;PMS_P2;Temp;Humidity;BMP_temperature;BMP_pressure;BME280_temperature;BME280_humidity;BME280_pressure;Samples;Min_cycle;Max_cycle;Signal;HPM_P1;HPM_P2
2023/04/29 00:02:27;;;;;;;8.67;6.60;;;;;;;;;;5073023;28;20269;-89
2023/04/29 00:04:59;;;;;;;8.23;6.23;;;;;;;;;;5073169;28;20239;-90
2023/04/29 00:07:28;;;;;;;13.20;9.03;;;;;;;;;;5073573;28;20224;-89
2023/04/29 00:09:56;;;;;;;10.17;8.53;;;;;;;;;;5073590;28;20228;-89
2023/04/29 00:12:24;;;;;;;8.53;7.20;;;;;;;;;;5073345;28;20197;-89
2023/04/29 00:14:53;;;;;;;13.93;8.83;;;;;;;;;;5073684;28;20237;-89
2023/04/29 00:17:23;;;;;;;8.97;6.77;;;;;;;;;;5073374;28;20283;-89
2023/04/29 00:19:51;;;;;;;16.53;11.37;;;;;;;;;;5073476;28;20205;-89
2023/04/29 00:22:20;;;;;;;10.07;6.27;;;;;;;;;;5073335;28;20189;-90
2023/04/29 00:24:49;;;;;;;10.73;7.20;;;;;;;;;;5073173;28;20300;-89
2023/04/29 00:27:17;;;;;;;10.40;8.63;;;;;;;;;;5072928;28;20239;-90
2023/04/29 00:29:46;;;;;;;3.37;3.07;;;;;;;;;;5073243;28;20291;-89
2023/04/29 00:32:14;;;;;;;12.03;5.53;;;;;;;;;;5073362;28;20239;-89
2023/04/29 00:34:44;;;;;;;7.37;4.63;;;;;;;;;;5072477;28;20204;-90
2023/04/29 00:37:12;;;;;;;6.60;3.93;;;;;;;;;;5072773;28;20268;-89
2023/04/29 00:39:40;;;;;;;6.60;5.87;;;;;;;;;;5072709;28;20248;-89
2023/04/29 00:42:10;;;;;;;10.17;5.57;;;;;;;;;;5071966;28;20212;-89
2023/04/29 00:44:38;;;;;;;4.23;3.90;;;;;;;;;;5073181;28;20270;-89
2023/04/29 00:47:10;;;;;;;8.77;6.83;;;;;;;;;;5072604;28;20254;-89
2023/04/29 00:49:38;;;;;;;9.77;4.73;;;;;;;;;;5072399;28;20200;-89
2023/04/29 00:52:08;;;;;;;9.20;7.87;;;;;;;;;;5072539;28;20270;-89
2023/04/29 00:54:37;;;;;;;8.33;7.07;;;;;;;;;;5072451;28;20204;-89
2023/04/29 00:57:06;;;;;;;6.80;5.40;;;;;;;;;;5071997;28;20248;-89
2023/04/29 00:59:34;;;;;;;8.77;6.17;;;;;;;;;;5072557;28;20273;-90
2023/04/29 01:02:03;;;;;;;8.03;7.13;;;;;;;;;;5072344;28;20292;-89
2023/04/29 01:04:32;;;;;;;9.33;6.00;;;;;;;;;;5071814;28;20233;-89
2023/04/29 01:07:03;;;;;;;9.60;8.23;;;;;;;;;;5072282;28;20303;-90
2023/04/29 01:09:39;;;;;;;13.57;9.93;;;;;;;;;;5072283;28;20295;-89
2023/04/29 01:12:12;;;;;;;10.20;7.63;;;;;;;;;;5071625;28;20196;-89
2023/04/29 01:14:44;;;;;;;5.17;4.67;;;;;;;;;;5072233;28;20361;-90
2023/04/29 01:17:17;;;;;;;10.07;7.23;;;;;;;;;;5071827;28;20215;-89
2023/04/29 01:19:47;;;;;;;8.83;7.93;;;;;;;;;;5072381;28;20235;-89
2023/04/29 01:22:16;;;;;;;6.70;5.10;;;;;;;;;;5071901;28;20228;-89
2023/04/29 01:24:47;;;;;;;13.37;9.97;;;;;;;;;;5071880;28;20228;-89
2023/04/29 01:27:20;;;;;;;8.17;5.37;;;;;;;;;;5071938;28;20235;-89
2023/04/29 01:29:52;;;;;;;9.83;7.40;;;;;;;;;;5072001;28;20201;-90
2023/04/29 01:32:25;;;;;;;11.30;9.10;;;;;;;;;;5071812;28;20296;-89
2023/04/29 01:34:58;;;;;;;9.53;7.67;;;;;;;;;;5071567;28;20200;-89
2023/04/29 01:37:31;;;;;;;10.67;8.87;;;;;;;;;;5071554;28;20220;-90
2023/04/29 01:40:05;;;;;;;9.50;4.63;;;;;;;;;;5071642;28;20200;-89
2023/04/29 01:42:37;;;;;;;7.73;6.83;;;;;;;;;;5071707;28;20197;-89
2023/04/29 01:45:07;;;;;;;6.70;5.97;;;;;;;;;;5071502;28;20256;-89
2023/04/29 01:47:37;;;;;;;11.97;8.60;;;;;;;;;;5071880;28;20251;-89
2023/04/29 01:50:06;;;;;;;8.87;6.47;;;;;;;;;;5071948;28;20201;-89
2023/04/29 01:52:34;;;;;;;7.20;6.53;;;;;;;;;;5070724;28;20202;-89
2023/04/29 01:55:04;;;;;;;6.43;5.30;;;;;;;;;;5071537;28;20296;-89
2023/04/29 01:57:33;;;;;;;6.97;5.23;;;;;;;;;;5071469;28;20224;-90
2023/04/29 02:00:03;;;;;;;11.73;6.53;;;;;;;;;;5071518;28;20200;-89
2023/04/29 02:02:32;;;;;;;10.33;7.60;;;;;;;;;;5071406;28;20204;-89
2023/04/29 02:05:01;;;;;;;12.80;7.53;;;;;;;;;;5071145;28;20237;-89
2023/04/29 02:07:29;;;;;;;19.93;7.17;;;;;;;;;;5071024;28;20233;-90
2023/04/29 02:09:58;;;;;;;10.93;7.27;;;;;;;;;;5071612;28;20321;-89
2023/04/29 02:12:27;;;;;;;7.57;5.13;;;;;;;;;;5071601;28;20346;-89
2023/04/29 02:14:57;;;;;;;8.20;6.17;;;;;;;;;;5071213;28;20202;-89
2023/04/29 02:17:26;;;;;;;7.80;7.10;;;;;;;;;;5070981;28;20322;-89
2023/04/29 02:19:54;;;;;;;10.77;8.07;;;;;;;;;;5071461;28;20331;-90
2023/04/29 02:22:23;;;;;;;6.00;5.50;;;;;;;;;;5071244;28;20205;-89
2023/04/29 02:24:51;;;;;;;7.93;5.13;;;;;;;;;;5071048;28;20204;-89
2023/04/29 02:27:20;;;;;;;9.07;5.37;;;;;;;;;;5071232;28;20246;-90
2023/04/29 02:29:50;;;;;;;5.87;5.37;;;;;;;;;;5071105;28;20269;-90
2023/04/29 02:32:19;;;;;;;4.57;4.00;;;;;;;;;;5070800;28;20232;-90
2023/04/29 02:34:48;;;;;;;6.20;5.57;;;;;;;;;;5071464;28;20228;-89
2023/04/29 02:37:16;;;;;;;11.07;7.27;;;;;;;;;;5071121;28;20321;-89
2023/04/29 02:39:45;;;;;;;7.27;5.77;;;;;;;;;;5070868;28;20216;-89
2023/04/29 02:42:14;;;;;;;9.20;7.13;;;;;;;;;;5071065;28;20246;-89
2023/04/29 02:44:42;;;;;;;5.20;4.70;;;;;;;;;;5070949;28;20197;-89
2023/04/29 02:47:12;;;;;;;10.97;7.87;;;;;;;;;;5071056;28;20201;-89
2023/04/29 02:49:41;;;;;;;6.37;5.77;;;;;;;;;;5070870;28;20231;-89
2023/04/29 02:52:09;;;;;;;12.97;9.47;;;;;;;;;;5070960;28;20297;-89
2023/04/29 02:54:38;;;;;;;17.20;10.60;;;;;;;;;;5070539;28;20209;-89
2023/04/29 02:57:06;;;;;;;16.60;10.03;;;;;;;;;;5071113;28;20293;-89
2023/04/29 02:59:35;;;;;;;7.40;4.10;;;;;;;;;;5070836;28;20223;-89
2023/04/29 03:02:04;;;;;;;6.10;3.60;;;;;;;;;;5070507;28;20189;-89
2023/04/29 03:04:34;;;;;;;11.73;6.40;;;;;;;;;;5071298;28;20247;-89
2023/04/29 03:07:03;;;;;;;7.17;5.30;;;;;;;;;;5074710;28;20235;-89
2023/04/29 03:09:32;;;;;;;8.00;6.63;;;;;;;;;;5074349;28;20217;-89
2023/04/29 03:12:01;;;;;;;5.80;5.03;;;;;;;;;;5074448;28;20190;-90
2023/04/29 03:14:30;;;;;;;8.60;7.07;;;;;;;;;;5074538;28;20202;-89
2023/04/29 03:16:58;;;;;;;14.97;10.60;;;;;;;;;;5074138;28;20201;-89
2023/04/29 03:19:27;;;;;;;7.97;6.33;;;;;;;;;;5073574;28;20221;-89
2023/04/29 03:21:56;;;;;;;13.67;9.03;;;;;;;;;;5074041;28;20202;-90
2023/04/29 03:24:25;;;;;;;9.07;7.13;;;;;;;;;;5074561;28;20304;-89
2023/04/29 03:26:53;;;;;;;12.23;8.93;;;;;;;;;;5073735;28;20240;-89
2023/04/29 03:29:22;;;;;;;15.23;7.67;;;;;;;;;;5074216;28;20371;-89
2023/04/29 03:31:50;;;;;;;21.23;9.43;;;;;;;;;;5074300;28;20228;-89
2023/04/29 03:34:19;;;;;;;17.77;9.97;;;;;;;;;;5073920;28;20227;-89
2023/04/29 03:36:47;;;;;;;9.70;6.50;;;;;;;;;;5074205;28;20206;-90
2023/04/29 03:39:17;;;;;;;12.60;6.97;;;;;;;;;;5074576;28;20236;-89
2023/04/29 03:41:45;;;;;;;5.07;4.63;;;;;;;;;;5074622;28;20216;-89
2023/04/29 03:44:14;;;;;;;9.67;7.10;;;;;;;;;;5074161;28;20201;-89
2023/04/29 03:46:42;;;;;;;12.77;8.87;;;;;;;;;;5074457;28;20204;-89
2023/04/29 03:49:11;;;;;;;10.30;9.30;;;;;;;;;;5073826;28;20190;-88
2023/04/29 03:51:39;;;;;;;9.83;7.43;;;;;;;;;;5074217;28;20205;-89
2023/04/29 03:54:08;;;;;;;7.70;6.90;;;;;;;;;;5074326;28;20304;-90
2023/04/29 03:56:38;;;;;;;12.07;9.27;;;;;;;;;;5073477;28;20209;-89
2023/04/29 03:59:07;;;;;;;13.30;8.30;;;;;;;;;;5073295;28;20217;-89
2023/04/29 04:01:35;;;;;;;8.50;6.37;;;;;;;;;;5073676;28;20208;-90
2023/04/29 04:04:03;;;;;;;11.67;7.07;;;;;;;;;;5073247;28;20245;-89
2023/04/29 04:06:32;;;;;;;6.80;6.17;;;;;;;;;;5073402;28;20254;-90
2023/04/29 04:09:01;;;;;;;9.40;5.57;;;;;;;;;;5073083;28;20297;-90
2023/04/29 04:11:29;;;;;;;9.30;5.87;;;;;;;;;;5073175;28;20220;-89
2023/04/29 04:13:59;;;;;;;8.17;7.23;;;;;;;;;;5073235;28;20219;-90
2023/04/29 04:16:27;;;;;;;11.57;6.20;;;;;;;;;;5073176;28;20203;-89
2023/04/29 04:18:56;;;;;;;5.60;5.07;;;;;;;;;;5073295;28;20236;-89
2023/04/29 04:21:26;;;;;;;12.53;7.03;;;;;;;;;;5073149;28;20274;-89
2023/04/29 04:23:54;;;;;;;9.17;5.93;;;;;;;;;;5073446;28;20204;-89
2023/04/29 04:26:23;;;;;;;7.83;7.13;;;;;;;;;;5072978;28;20198;-89
2023/04/29 04:28:51;;;;;;;6.53;5.37;;;;;;;;;;5072784;28;20263;-89
2023/04/29 04:31:21;;;;;;;6.73;5.00;;;;;;;;;;5073075;28;20225;-90
2023/04/29 04:33:49;;;;;;;12.37;8.20;;;;;;;;;;5073214;28;20201;-89
2023/04/29 04:36:18;;;;;;;10.40;7.00;;;;;;;;;;5072637;28;20244;-89
2023/04/29 04:38:46;;;;;;;17.10;8.17;;;;;;;;;;5072321;28;20206;-89
2023/04/29 04:41:15;;;;;;;13.40;5.53;;;;;;;;;;5072780;28;20298;-89
2023/04/29 04:43:43;;;;;;;8.67;7.47;;;;;;;;;;5072590;28;20228;-90
2023/04/29 04:46:13;;;;;;;5.30;4.60;;;;;;;;;;5072838;28;20233;-89
2023/04/29 04:48:43;;;;;;;4.53;4.10;;;;;;;;;;5072550;28;20203;-90
2023/04/29 04:51:12;;;;;;;6.47;4.70;;;;;;;;;;5072455;28;20230;-89
2023/04/29 04:53:41;;;;;;;7.73;5.77;;;;;;;;;;5072829;28;20201;-89
2023/04/29 04:56:10;;;;;;;7.07;6.57;;;;;;;;;;5072423;28;20236;-89
2023/04/29 04:58:38;;;;;;;5.17;3.60;;;;;;;;;;5072408;28;20241;-90
2023/04/29 05:01:06;;;;;;;8.50;5.60;;;;;;;;;;5072137;28;20246;-89
2023/04/29 05:03:35;;;;;;;8.60;5.93;;;;;;;;;;5072015;28;20241;-89
2023/04/29 05:06:05;;;;;;;8.20;7.10;;;;;;;;;;5072210;28;20261;-89
2023/04/29 05:08:34;;;;;;;10.73;6.60;;;;;;;;;;5071982;28;20229;-90
2023/04/29 05:11:02;;;;;;;7.03;4.50;;;;;;;;;;5072126;28;20195;-89
2023/04/29 05:13:31;;;;;;;8.23;4.03;;;;;;;;;;5072194;28;20198;-89
2023/04/29 05:16:03;;;;;;;5.73;4.53;;;;;;;;;;5071736;28;20203;-89
2023/04/29 05:18:33;;;;;;;10.30;6.63;;;;;;;;;;5071869;28;20238;-90
2023/04/29 05:21:02;;;;;;;7.20;5.20;;;;;;;;;;5071770;28;20259;-89
2023/04/29 05:23:32;;;;;;;9.00;4.70;;;;;;;;;;5071904;28;20202;-89
2023/04/29 05:26:00;;;;;;;10.73;7.30;;;;;;;;;;5071793;28;20259;-89
2023/04/29 05:28:29;;;;;;;8.83;6.13;;;;;;;;;;5071525;28;20225;-89
2023/04/29 05:30:57;;;;;;;7.83;6.07;;;;;;;;;;5071414;28;20208;-89
2023/04/29 05:33:26;;;;;;;6.77;5.40;;;;;;;;;;5072265;28;20218;-90
2023/04/29 05:35:54;;;;;;;4.43;4.03;;;;;;;;;;5071799;28;20215;-89
2023/04/29 05:38:27;;;;;;;12.27;6.30;;;;;;;;;;5071866;28;20204;-90
2023/04/29 05:40:57;;;;;;;10.03;7.33;;;;;;;;;;5071183;28;20224;-89
2023/04/29 05:43:26;;;;;;;5.17;3.40;;;;;;;;;;5071834;28;20263;-89
2023/04/29 05:45:55;;;;;;;9.23;5.30;;;;;;;;;;5071633;28;20235;-89
2023/04/29 05:48:23;;;;;;;5.70;4.43;;;;;;;;;;5071718;28;20208;-89
2023/04/29 05:50:52;;;;;;;6.57;5.43;;;;;;;;;;5071729;28;20220;-89
2023/04/29 05:53:21;;;;;;;12.73;6.30;;;;;;;;;;5071542;28;20276;-89
2023/04/29 05:55:49;;;;;;;5.13;4.60;;;;;;;;;;5071495;28;20209;-89
2023/04/29 05:58:20;;;;;;;6.67;4.63;;;;;;;;;;5071444;28;20228;-89
2023/04/29 06:00:49;;;;;;;6.57;5.10;;;;;;;;;;5071514;28;20217;-89
2023/04/29 06:03:17;;;;;;;6.33;3.50;;;;;;;;;;5070912;28;20205;-89
2023/04/29 06:05:46;;;;;;;5.10;4.43;;;;;;;;;;5070950;28;20333;-89
2023/04/29 06:08:15;;;;;;;3.80;3.50;;;;;;;;;;5071066;28;20251;-89
2023/04/29 06:10:43;;;;;;;7.70;5.70;;;;;;;;;;5070990;28;20211;-89
2023/04/29 06:13:12;;;;;;;8.17;4.33;;;;;;;;;;5071651;28;20198;-89
2023/04/29 06:15:41;;;;;;;11.17;6.20;;;;;;;;;;5071435;28;20221;-89
2023/04/29 06:18:10;;;;;;;4.30;3.90;;;;;;;;;;5070670;28;20217;-89
2023/04/29 06:20:38;;;;;;;8.70;5.80;;;;;;;;;;5070966;28;20223;-89
2023/04/29 06:23:07;;;;;;;8.13;5.40;;;;;;;;;;5071135;28;20193;-89
2023/04/29 06:25:36;;;;;;;6.83;4.67;;;;;;;;;;5071257;28;20275;-89
2023/04/29 06:28:04;;;;;;;5.37;4.73;;;;;;;;;;5071028;28;20224;-90
2023/04/29 06:30:33;;;;;;;6.53;5.63;;;;;;;;;;5071043;28;20224;-89
2023/04/29 06:33:02;;;;;;;8.70;6.63;;;;;;;;;;5071233;28;20235;-89
2023/04/29 06:35:31;;;;;;;6.43;4.83;;;;;;;;;;5070858;28;20296;-89
2023/04/29 06:38:00;;;;;;;5.57;5.03;;;;;;;;;;5071128;28;20301;-89
2023/04/29 06:40:28;;;;;;;5.73;3.77;;;;;;;;;;5074892;28;20255;-89
2023/04/29 06:42:57;;;;;;;3.93;3.50;;;;;;;;;;5074719;28;20197;-89
2023/04/29 06:45:25;;;;;;;8.43;3.80;;;;;;;;;;5074956;28;20202;-89
2023/04/29 06:47:55;;;;;;;5.83;4.20;;;;;;;;;;5074929;28;20240;-89
2023/04/29 06:50:24;;;;;;;5.77;4.37;;;;;;;;;;5074466;28;20194;-89
2023/04/29 06:52:53;;;;;;;8.63;4.67;;;;;;;;;;5074404;28;20248;-89
2023/04/29 06:55:22;;;;;;;4.97;4.20;;;;;;;;;;5074708;28;20197;-89
2023/04/29 06:57:50;;;;;;;12.63;5.40;;;;;;;;;;5074310;28;20201;-89
2023/04/29 07:00:19;;;;;;;5.33;3.53;;;;;;;;;;5074592;28;20247;-89
2023/04/29 07:02:48;;;;;;;6.43;2.93;;;;;;;;;;5074298;28;20193;-89
2023/04/29 07:05:17;;;;;;;4.67;3.77;;;;;;;;;;5074054;28;20237;-89
2023/04/29 07:07:47;;;;;;;6.30;5.23;;;;;;;;;;5074559;28;20202;-89
2023/04/29 07:10:15;;;;;;;3.83;3.43;;;;;;;;;;5074428;28;20226;-88
2023/04/29 07:12:44;;;;;;;4.00;3.63;;;;;;;;;;5074243;28;20204;-89
2023/04/29 07:15:12;;;;;;;6.87;4.03;;;;;;;;;;5074304;28;20310;-89
2023/04/29 07:17:41;;;;;;;4.03;3.57;;;;;;;;;;5074111;28;20224;-88
2023/04/29 07:20:10;;;;;;;12.27;4.97;;;;;;;;;;5074098;28;20224;-89
2023/04/29 07:22:38;;;;;;;8.37;4.27;;;;;;;;;;5074556;28;20205;-89
2023/04/29 07:25:09;;;;;;;6.90;3.67;;;;;;;;;;5074138;28;20224;-89
2023/04/29 07:27:38;;;;;;;3.00;2.80;;;;;;;;;;5073966;28;20217;-89
2023/04/29 07:30:07;;;;;;;2.83;1.80;;;;;;;;;;5073930;28;20198;-89
2023/04/29 07:32:36;;;;;;;5.33;4.27;;;;;;;;;;5073975;28;20243;-89
2023/04/29 07:35:05;;;;;;;4.10;3.10;;;;;;;;;;5074245;28;20197;-89
2023/04/29 07:37:33;;;;;;;6.67;4.53;;;;;;;;;;5073778;28;20225;-88
2023/04/29 07:40:01;;;;;;;5.07;3.47;;;;;;;;;;5073855;28;20221;-89
2023/04/29 07:42:31;;;;;;;9.00;6.00;;;;;;;;;;5073892;28;20205;-89
2023/04/29 07:45:00;;;;;;;3.10;2.80;;;;;;;;;;5073876;28;20204;-89
2023/04/29 07:47:28;;;;;;;1.83;1.73;;;;;;;;;;5073628;28;20228;-88
2023/04/29 07:49:57;;;;;;;6.70;4.47;;;;;;;;;;5073196;28;20198;-89
2023/04/29 07:52:25;;;;;;;8.00;3.23;;;;;;;;;;5073218;28;20247;-88
2023/04/29 07:54:55;;;;;;;6.20;4.77;;;;;;;;;;5073913;28;20201;-88
2023/04/29 07:57:23;;;;;;;7.67;5.50;;;;;;;;;;5073537;28;20201;-88
2023/04/29 07:59:54;;;;;;;6.57;4.10;;;;;;;;;;5073305;28;20213;-89
2023/04/29 08:02:22;;;;;;;3.97;3.60;;;;;;;;;;5073435;28;20236;-88
2023/04/29 08:04:52;;;;;;;16.53;4.83;;;;;;;;;;5073365;28;20233;-88
2023/04/29 08:07:22;;;;;;;9.20;4.80;;;;;;;;;;5073360;28;20205;-88
2023/04/29 08:09:50;;;;;;;3.77;2.80;;;;;;;;;;5073187;28;20344;-89
2023/04/29 08:12:19;;;;;;;4.73;3.80;;;;;;;;;;5073323;28;20202;-88
2023/04/29 08:14:47;;;;;;;3.20;2.83;;;;;;;;;;5073675;28;20233;-88
2023/04/29 08:17:17;;;;;;;1.50;1.40;;;;;;;;;;5073211;28;20239;-88
2023/04/29 08:19:46;;;;;;;4.10;3.43;;;;;;;;;;5073082;28;20236;-89
2023/04/29 08:22:14;;;;;;;7.37;3.27;;;;;;;;;;5073360;28;20304;-88
2023/04/29 08:24:44;;;;;;;5.00;4.23;;;;;;;;;;5072581;28;20302;-89
2023/04/29 08:27:12;;;;;;;2.90;2.13;;;;;;;;;;5073027;28;20250;-89
2023/04/29 08:29:41;;;;;;;4.20;3.63;;;;;;;;;;5073101;28;20213;-88
2023/04/29 08:32:09;;;;;;;4.87;2.73;;;;;;;;;;5072328;28;20199;-88
2023/04/29 08:34:40;;;;;;;8.57;2.83;;;;;;;;;;5072865;28;20215;-88
2023/04/29 08:37:09;;;;;;;11.30;3.70;;;;;;;;;;5072821;28;20203;-89
2023/04/29 08:39:37;;;;;;;5.17;3.53;;;;;;;;;;5072370;28;20203;-89
2023/04/29 08:42:08;;;;;;;3.60;3.27;;;;;;;;;;5072616;28;20242;-89
2023/04/29 08:44:37;;;;;;;2.47;2.30;;;;;;;;;;5072577;28;20227;-88
2023/04/29 08:47:06;;;;;;;5.83;4.27;;;;;;;;;;5072476;28;20230;-88
2023/04/29 08:49:36;;;;;;;5.27;3.90;;;;;;;;;;5072807;28;20235;-88
2023/04/29 08:52:06;;;;;;;4.90;3.90;;;;;;;;;;5072641;28;20201;-88
2023/04/29 08:54:35;;;;;;;4.47;4.00;;;;;;;;;;5072469;28;20231;-88
2023/04/29 08:57:05;;;;;;;4.87;2.70;;;;;;;;;;5072267;28;20207;-88
2023/04/29 08:59:33;;;;;;;3.83;3.03;;;;;;;;;;5072095;28;20211;-88
2023/04/29 09:02:02;;;;;;;3.87;3.57;;;;;;;;;;5071881;28;20230;-88
2023/04/29 09:04:41;;;;;;;1.57;1.43;;;;;;;;;;5071798;28;20334;-88
2023/04/29 09:07:12;;;;;;;3.40;2.37;;;;;;;;;;5072062;28;20207;-88
2023/04/29 09:09:41;;;;;;;2.50;2.30;;;;;;;;;;5072130;28;20199;-88
2023/04/29 09:12:09;;;;;;;4.53;2.97;;;;;;;;;;5072318;28;20233;-88
2023/04/29 09:14:38;;;;;;;3.23;2.13;;;;;;;;;;5071960;28;20217;-88
2023/04/29 09:17:06;;;;;;;5.13;3.27;;;;;;;;;;5072280;28;20298;-88
2023/04/29 09:19:35;;;;;;;4.90;3.27;;;;;;;;;;5072438;28;20301;-89
2023/04/29 09:22:06;;;;;;;2.80;2.30;;;;;;;;;;5071516;28;20203;-89
2023/04/29 09:24:36;;;;;;;2.50;2.30;;;;;;;;;;5071742;28;20247;-90
2023/04/29 09:27:05;;;;;;;9.80;3.43;;;;;;;;;;5071361;28;20226;-89
2023/04/29 09:29:35;;;;;;;1.73;1.63;;;;;;;;;;5072022;28;20210;-89
2023/04/29 09:32:19;;;;;;;6.20;4.03;;;;;;;;;;5072101;28;20299;-89
2023/04/29 09:34:47;;;;;;;4.13;3.27;;;;;;;;;;5071071;28;20203;-89
2023/04/29 09:37:24;;;;;;;5.43;2.87;;;;;;;;;;5071913;28;20232;-89
2023/04/29 09:39:55;;;;;;;5.10;4.17;;;;;;;;;;5071672;28;20208;-89
2023/04/29 09:42:23;;;;;;;6.20;4.33;;;;;;;;;;5070998;28;20259;-89
2023/04/29 09:44:53;;;;;;;2.77;2.53;;;;;;;;;;5071565;28;20257;-88
2023/04/29 09:47:30;;;;;;;1.63;1.53;;;;;;;;;;5071763;28;20205;-88
2023/04/29 09:50:11;;;;;;;5.60;3.93;;;;;;;;;;5071118;28;20230;-88
2023/04/29 09:52:41;;;;;;;1.67;1.57;;;;;;;;;;5071433;28;20199;-88
2023/04/29 09:55:14;;;;;;;3.43;2.83;;;;;;;;;;5071762;28;20206;-88
2023/04/29 09:57:43;;;;;;;5.90;4.17;;;;;;;;;;5071560;28;20211;-88
2023/04/29 10:00:13;;;;;;;3.17;2.93;;;;;;;;;;5071348;28;20208;-88
2023/04/29 10:02:42;;;;;;;2.40;2.20;;;;;;;;;;5071134;28;20223;-88
2023/04/29 10:05:12;;;;;;;4.43;3.43;;;;;;;;;;5070419;28;20331;-88
2023/04/29 10:07:41;;;;;;;8.90;5.07;;;;;;;;;;5071483;28;20204;-88
2023/04/29 10:10:12;;;;;;;0.70;0.70;;;;;;;;;;5071416;28;20207;-88
2023/04/29 10:12:41;;;;;;;1.70;1.60;;;;;;;;;;5071527;28;20290;-88
2023/04/29 10:15:14;;;;;;;5.90;3.73;;;;;;;;;;5070450;28;20199;-88
2023/04/29 10:17:45;;;;;;;9.10;5.67;;;;;;;;;;5071523;28;20302;-88
2023/04/29 10:20:15;;;;;;;4.03;3.13;;;;;;;;;;5070983;28;20201;-88
2023/04/29 10:22:46;;;;;;;3.97;3.57;;;;;;;;;;5070826;28;20224;-88
2023/04/29 10:25:17;;;;;;;18.23;4.90;;;;;;;;;;5071102;28;20214;-88
2023/04/29 10:27:46;;;;;;;5.77;4.60;;;;;;;;;;5070746;28;20227;-88
2023/04/29 10:30:15;;;;;;;1.53;1.43;;;;;;;;;;5070576;28;20228;-88
2023/04/29 10:32:44;;;;;;;5.53;2.80;;;;;;;;;;5071328;28;20206;-87
2023/04/29 10:35:21;;;;;;;6.57;4.60;;;;;;;;;;5070912;28;20303;-88
2023/04/29 10:37:51;;;;;;;4.67;3.77;;;;;;;;;;5070801;28;20200;-88
2023/04/29 10:40:25;;;;;;;3.83;3.53;;;;;;;;;;5071148;28;20302;-88
2023/04/29 10:42:54;;;;;;;5.70;4.10;;;;;;;;;;5070965;28;20228;-88
2023/04/29 10:45:27;;;;;;;5.10;3.40;;;;;;;;;;5071425;28;20204;-88
2023/04/29 10:48:12;;;;;;;2.50;1.90;;;;;;;;;;5071202;28;20200;-88
2023/04/29 10:50:42;;;;;;;5.43;3.80;;;;;;;;;;5071122;28;20208;-88
2023/04/29 10:53:10;;;;;;;4.37;3.73;;;;;;;;;;5070854;28;20193;-88
2023/04/29 10:55:40;;;;;;;3.80;2.57;;;;;;;;;;5070941;28;20217;-88
2023/04/29 10:58:31;;;;;;;3.20;2.90;;;;;;;;;;5070609;28;20197;-88
2023/04/29 11:00:59;;;;;;;3.93;2.83;;;;;;;;;;5070833;28;20201;-88
2023/04/29 11:03:43;;;;;;;4.50;3.80;;;;;;;;;;5070819;28;20255;-88
2023/04/29 11:06:12;;;;;;;8.33;3.60;;;;;;;;;;5071012;28;20227;-88
2023/04/29 11:08:41;;;;;;;6.43;4.47;;;;;;;;;;5070869;28;20208;-88
2023/04/29 11:11:13;;;;;;;2.17;1.97;;;;;;;;;;5070998;28;20209;-88
2023/04/29 11:13:47;;;;;;;5.77;3.90;;;;;;;;;;5070485;28;20212;-88
2023/04/29 11:16:15;;;;;;;4.17;3.73;;;;;;;;;;5070448;28;20223;-88
2023/04/29 11:19:04;;;;;;;5.47;2.90;;;;;;;;;;5070757;28;20203;-88
2023/04/29 11:21:34;;;;;;;4.23;2.13;;;;;;;;;;5070856;28;20205;-88
2023/04/29 11:24:05;;;;;;;3.67;1.80;;;;;;;;;;5070561;28;20305;-88
2023/04/29 11:26:36;;;;;;;2.90;2.70;;;;;;;;;;5072548;28;20207;-88
2023/04/29 11:29:07;;;;;;;1.97;1.87;;;;;;;;;;5074460;28;20258;-88
2023/04/29 11:31:35;;;;;;;2.57;2.03;;;;;;;;;;5073976;28;20236;-88
2023/04/29 11:34:04;;;;;;;2.50;1.97;;;;;;;;;;5074089;28;20219;-88
2023/04/29 11:36:33;;;;;;;2.33;2.13;;;;;;;;;;5073860;28;20256;-88
2023/04/29 11:39:02;;;;;;;2.00;1.70;;;;;;;;;;5074011;28;20203;-88
2023/04/29 11:41:31;;;;;;;2.73;2.03;;;;;;;;;;5073912;28;20255;-88
2023/04/29 11:44:02;;;;;;;8.30;2.43;;;;;;;;;;5074037;28;20288;-87
2023/04/29 11:46:31;;;;;;;6.50;2.73;;;;;;;;;;5073654;28;20196;-88
2023/04/29 11:49:00;;;;;;;2.67;2.47;;;;;;;;;;5074223;28;20203;-88
2023/04/29 11:51:28;;;;;;;3.50;2.70;;;;;;;;;;5074032;28;20201;-88
2023/04/29 11:53:57;;;;;;;6.43;2.70;;;;;;;;;;5073453;28;20188;-88
2023/04/29 11:56:26;;;;;;;3.20;2.57;;;;;;;;;;5073340;28;20209;-87
2023/04/29 11:58:55;;;;;;;3.50;3.07;;;;;;;;;;5073552;28;20231;-88
2023/04/29 12:01:26;;;;;;;3.57;2.33;;;;;;;;;;5073835;28;20205;-88
2023/04/29 12:03:59;;;;;;;5.53;1.80;;;;;;;;;;5073286;28;20216;-88
2023/04/29 12:06:29;;;;;;;2.57;2.00;;;;;;;;;;5073064;28;20238;-88
2023/04/29 12:09:00;;;;;;;4.80;1.87;;;;;;;;;;5073455;28;20201;-88
2023/04/29 12:11:28;;;;;;;3.20;2.73;;;;;;;;;;5073122;28;20209;-88
2023/04/29 12:13:57;;;;;;;4.33;2.73;;;;;;;;;;5073697;28;20361;-88
2023/04/29 12:16:28;;;;;;;5.23;3.03;;;;;;;;;;5073271;28;20198;-87
2023/04/29 12:18:57;;;;;;;1.43;1.23;;;;;;;;;;5072791;28;20197;-88
2023/04/29 12:21:26;;;;;;;0.83;0.83;;;;;;;;;;5073428;28;20218;-88
2023/04/29 12:23:55;;;;;;;1.70;1.60;;;;;;;;;;5073223;28;20278;-87
2023/04/29 12:26:23;;;;;;;3.60;2.43;;;;;;;;;;5072681;28;20290;-88
2023/04/29 12:28:54;;;;;;;8.13;3.00;;;;;;;;;;5073060;28;20205;-87
2023/04/29 12:31:23;;;;;;;1.33;1.23;;;;;;;;;;5073086;28;20200;-88
2023/04/29 12:33:55;;;;;;;2.83;2.20;;;;;;;;;;5072652;28;20247;-88
2023/04/29 12:36:23;;;;;;;2.97;2.20;;;;;;;;;;5072836;28;20201;-87
2023/04/29 12:38:54;;;;;;;3.17;2.53;;;;;;;;;;5073154;28;20224;-88
2023/04/29 12:41:36;;;;;;;5.13;4.90;;;;;;;;;;5072776;28;20196;-87
2023/04/29 12:44:06;;;;;;;5.83;3.57;;;;;;;;;;5072801;28;20270;-88
2023/04/29 12:46:38;;;;;;;3.07;2.70;;;;;;;;;;5072589;28;20232;-87
2023/04/29 12:49:08;;;;;;;2.57;2.37;;;;;;;;;;5072679;28;20233;-88
2023/04/29 12:51:37;;;;;;;3.80;2.47;;;;;;;;;;5073043;28;20200;-87
2023/04/29 12:54:06;;;;;;;2.80;2.30;;;;;;;;;;5072434;28;20271;-87
2023/04/29 12:56:34;;;;;;;3.13;2.73;;;;;;;;;;5072583;28;20296;-87
2023/04/29 12:59:07;;;;;;;1.27;1.07;;;;;;;;;;5072334;28;20212;-87
2023/04/29 13:01:35;;;;;;;3.07;2.57;;;;;;;;;;5072391;28;20247;-87
2023/04/29 13:04:04;;;;;;;5.97;3.30;;;;;;;;;;5072770;28;20220;-87
2023/04/29 13:06:38;;;;;;;2.47;2.27;;;;;;;;;;5071977;28;20309;-87
2023/04/29 13:09:10;;;;;;;6.73;1.67;;;;;;;;;;5072232;28;20223;-88
2023/04/29 13:11:46;;;;;;;3.23;2.83;;;;;;;;;;5071944;28;20295;-88
2023/04/29 13:14:15;;;;;;;4.23;2.33;;;;;;;;;;5071587;28;20204;-88
2023/04/29 13:16:44;;;;;;;2.47;2.27;;;;;;;;;;5072305;28;20202;-88
2023/04/29 13:19:12;;;;;;;0.80;0.80;;;;;;;;;;5071560;28;20204;-88
2023/04/29 13:22:02;;;;;;;2.73;2.53;;;;;;;;;;5071340;28;20236;-88
2023/04/29 13:24:31;;;;;;;5.53;3.30;;;;;;;;;;5071586;28;20228;-88
2023/04/29 13:27:01;;;;;;;4.67;2.50;;;;;;;;;;5071882;28;20224;-87
2023/04/29 13:29:30;;;;;;;3.33;2.53;;;;;;;;;;5071539;28;20235;-88
2023/04/29 13:31:58;;;;;;;3.43;1.67;;;;;;;;;;5071901;28;20263;-88
2023/04/29 13:34:27;;;;;;;2.77;2.20;;;;;;;;;;5071903;28;20205;-87
2023/04/29 13:36:55;;;;;;;2.03;1.87;;;;;;;;;;5071656;28;20228;-87
2023/04/29 13:39:25;;;;;;;1.53;1.40;;;;;;;;;;5071672;28;20198;-88
2023/04/29 13:41:54;;;;;;;2.30;2.07;;;;;;;;;;5072132;28;20315;-87
2023/04/29 13:44:26;;;;;;;4.27;2.40;;;;;;;;;;5071488;28;20217;-87
2023/04/29 13:47:15;;;;;;;4.13;1.93;;;;;;;;;;5071508;28;20201;-87
2023/04/29 13:49:52;;;;;;;1.40;1.30;;;;;;;;;;5070884;28;20210;-87
2023/04/29 13:52:40;;;;;;;3.90;1.40;;;;;;;;;;5071335;28;20220;-87
2023/04/29 13:55:13;;;;;;;7.30;1.37;;;;;;;;;;5071454;28;20200;-87
2023/04/29 13:58:01;;;;;;;4.20;1.83;;;;;;;;;;5071338;28;20198;-88
2023/04/29 14:00:33;;;;;;;4.47;2.73;;;;;;;;;;5071424;28;20197;-87
2023/04/29 14:03:06;;;;;;;2.00;1.80;;;;;;;;;;5071639;28;20288;-88
2023/04/29 14:05:34;;;;;;;1.80;1.43;;;;;;;;;;5071258;28;20305;-87
2023/04/29 14:08:03;;;;;;;1.63;1.53;;;;;;;;;;5071160;28;20198;-87
2023/04/29 14:10:33;;;;;;;1.90;1.60;;;;;;;;;;5071576;28;20193;-87
2023/04/29 14:13:02;;;;;;;0.93;0.93;;;;;;;;;;5071189;28;20231;-88
2023/04/29 14:15:30;;;;;;;4.87;2.07;;;;;;;;;;5071224;28;20231;-88
2023/04/29 14:17:59;;;;;;;1.60;1.50;;;;;;;;;;5071284;28;20237;-88
2023/04/29 14:20:27;;;;;;;1.77;1.50;;;;;;;;;;5071210;28;20226;-87
2023/04/29 14:22:55;;;;;;;2.60;2.20;;;;;;;;;;5071467;28;20254;-87
2023/04/29 14:25:24;;;;;;;1.30;1.30;;;;;;;;;;5070829;28;20323;-88
2023/04/29 14:27:56;;;;;;;2.73;1.70;;;;;;;;;;5071172;28;20285;-87
2023/04/29 14:30:24;;;;;;;1.10;1.10;;;;;;;;;;5071445;28;20255;-87
2023/04/29 14:32:53;;;;;;;1.37;1.30;;;;;;;;;;5070749;28;20192;-88
2023/04/29 14:35:21;;;;;;;1.60;1.50;;;;;;;;;;5070994;28;20293;-87
2023/04/29 14:37:50;;;;;;;2.37;1.67;;;;;;;;;;5071561;28;20286;-88
2023/04/29 14:40:18;;;;;;;2.00;1.40;;;;;;;;;;5070236;28;20209;-88
2023/04/29 14:42:47;;;;;;;1.10;1.10;;;;;;;;;;5071177;28;20199;-88
2023/04/29 14:45:17;;;;;;;1.07;1.07;;;;;;;;;;5070725;28;20214;-88
2023/04/29 14:47:45;;;;;;;1.10;1.10;;;;;;;;;;5070839;28;20198;-87
2023/04/29 14:50:15;;;;;;;2.43;1.50;;;;;;;;;;5071741;28;20224;-87
2023/04/29 14:52:43;;;;;;;1.50;1.40;;;;;;;;;;5071620;28;20299;-88
2023/04/29 14:55:11;;;;;;;1.40;1.30;;;;;;;;;;5070673;28;20292;-87
2023/04/29 14:57:40;;;;;;;2.57;1.27;;;;;;;;;;5071336;28;20208;-87